Time;durP1;ratioP1;P1;durP2;ratioP2;P2;SDS_P1;SDS_P2;PMS_P1;PMS_P2;Temp;Humidity;BMP_temperature;BMP_pressure;BME280_temperature;BME280_humidity;BME280_pressure;Samples;Min_cycle;Max_cycle;Signal;HPM_P1;HPM_P2
2022/02/12 00:02:10;;;;;;;;;;;22.00;43.90;;;;;;5155455;27;19927;-45
2022/02/12 00:04:37;;;;;;;;;;;22.00;43.90;;;;;;5134958;27;19927;-48
2022/02/12 00:07:04;;;;;;;;;;;22.00;43.90;;;;;;5134190;27;19923;-47
2022/02/12 00:09:31;;;;;;;;;;;22.00;43.90;;;;;;5116597;28;19966;-44
2022/02/12 00:11:58;;;;;;;;;;;22.00;43.90;;;;;;5134535;28;19972;-47
2022/02/12 00:14:25;;;;;;;;;;;22.00;43.90;;;;;;5148034;27;20005;-46
2022/02/12 00:16:52;;;;;;;;;;;22.00;43.90;;;;;;5155088;27;19923;-45
2022/02/12 00:19:19;;;;;;;;;;;22.00;43.90;;;;;;5154881;27;19933;-46
2022/02/12 00:21:46;;;;;;;;;;;22.00;43.90;;;;;;5154365;27;19923;-48
2022/02/12 00:24:13;;;;;;;;;;;22.00;43.90;;;;;;5155306;27;19930;-46
2022/02/12 00:26:41;;;;;;;;;;;22.00;43.90;;;;;;5154915;27;19934;-50
2022/02/12 00:29:08;;;;;;;;;;;22.00;44.00;;;;;;5153782;27;20390;-52
2022/02/12 00:31:35;;;;;;;;;;;22.00;43.90;;;;;;5154949;27;19923;-51
2022/02/12 00:34:02;;;;;;;;;;;22.00;44.00;;;;;;5154944;27;19930;-49
2022/02/12 00:36:29;;;;;;;;;;;22.00;44.00;;;;;;5143622;27;19969;-48
2022/02/12 00:38:56;;;;;;;;;;;22.00;44.00;;;;;;5134171;28;19962;-48
2022/02/12 00:41:23;;;;;;;;;;;22.00;44.00;;;;;;5133965;28;19980;-53
2022/02/12 00:43:50;;;;;;;;;;;22.00;44.00;;;;;;5140077;27;19923;-45
2022/02/12 00:46:17;;;;;;;;;;;22.00;44.00;;;;;;5155374;27;19985;-50
2022/02/12 00:48:44;;;;;;;;;;;22.00;44.00;;;;;;5154777;27;19924;-45
2022/02/12 00:51:13;;;;;;;;;;;22.00;44.00;;;;;;5154111;27;20401;-44
2022/02/12 00:53:41;;;;;;;;;;;22.00;44.00;;;;;;5155045;27;19923;-50
2022/02/12 00:56:08;;;;;;;;;;;22.00;44.00;;;;;;5155057;27;19930;-46
2022/02/12 00:58:36;;;;;;;;;;;22.00;44.00;;;;;;5154001;27;19935;-48
2022/02/12 01:01:03;;;;;;;;;;;21.90;43.90;;;;;;5136622;27;20339;-48
2022/02/12 01:03:30;;;;;;;;;;;21.90;43.90;;;;;;5154956;27;19976;-50
2022/02/12 01:05:57;;;;;;;;;;;21.90;43.90;;;;;;5145119;27;19926;-48
2022/02/12 01:08:24;;;;;;;;;;;21.90;43.90;;;;;;5154923;27;19948;-44
2022/02/12 01:10:52;;;;;;;;;;;21.90;43.90;;;;;;5154441;27;20389;-46
2022/02/12 01:13:19;;;;;;;;;;;21.90;43.90;;;;;;5154513;27;19927;-48
2022/02/12 01:15:46;;;;;;;;;;;21.90;43.90;;;;;;5135082;27;19923;-48
2022/02/12 01:18:14;;;;;;;;;;;21.90;43.90;;;;;;5137315;27;19963;-49
2022/02/12 01:20:41;;;;;;;;;;;21.90;43.90;;;;;;5137265;27;19923;-48
2022/02/12 01:23:08;;;;;;;;;;;21.90;43.90;;;;;;5157620;27;19927;-45
2022/02/12 01:25:35;;;;;;;;;;;21.90;43.90;;;;;;5158423;27;19923;-49
2022/02/12 01:28:02;;;;;;;;;;;21.90;43.90;;;;;;5158380;27;19923;-49
2022/02/12 01:30:30;;;;;;;;;;;21.90;43.90;;;;;;5157140;27;19923;-48
2022/02/12 01:32:57;;;;;;;;;;;21.90;43.90;;;;;;5158274;27;19971;-47
2022/02/12 01:35:24;;;;;;;;;;;21.90;43.90;;;;;;5157938;27;19929;-52
2022/02/12 01:37:57;;;;;;;;;;;21.90;43.90;;;;;;5157435;27;20400;-46
2022/02/12 01:40:25;;;;;;;;;;;21.90;43.90;;;;;;5157722;27;19930;-45
2022/02/12 01:42:52;;;;;;;;;;;21.90;43.90;;;;;;5158039;27;19930;-45
2022/02/12 01:45:19;;;;;;;;;;;21.90;43.90;;;;;;5138701;27;20339;-47
2022/02/12 01:47:48;;;;;;;;;;;21.90;43.90;;;;;;5157710;27;19971;-45
2022/02/12 01:50:15;;;;;;;;;;;21.90;43.90;;;;;;5157988;27;19927;-49
2022/02/12 01:52:43;;;;;;;;;;;21.90;43.90;;;;;;5157006;27;20026;-44
2022/02/12 01:55:12;;;;;;;;;;;21.90;43.90;;;;;;5157539;27;19923;-45
2022/02/12 01:57:40;;;;;;;;;;;21.90;43.90;;;;;;5157499;27;19927;-44
2022/02/12 02:00:09;;;;;;;;;;;21.90;43.90;;;;;;5156795;27;19946;-46
2022/02/12 02:02:39;;;;;;;;;;;21.90;43.90;;;;;;5157655;27;19927;-46
2022/02/12 02:05:09;;;;;;;;;;;21.90;43.90;;;;;;5152595;27;19976;-45
2022/02/12 02:07:37;;;;;;;;;;;21.90;43.90;;;;;;5147954;27;20388;-43
2022/02/12 02:10:05;;;;;;;;;;;21.90;44.50;;;;;;5157281;27;20017;-44
2022/02/12 02:12:32;;;;;;;;;;;21.90;43.90;;;;;;5157108;27;20282;-46
2022/02/12 02:14:59;;;;;;;;;;;21.90;43.90;;;;;;5156375;27;19923;-45
2022/02/12 02:17:26;;;;;;;;;;;21.90;43.90;;;;;;5157092;27;19948;-48
2022/02/12 02:19:54;;;;;;;;;;;21.90;43.90;;;;;;5156971;27;19968;-48
2022/02/12 02:22:24;;;;;;;;;;;21.90;43.90;;;;;;5156309;27;20294;-48
2022/02/12 02:24:54;;;;;;;;;;;21.90;43.90;;;;;;5157402;27;19923;-47
2022/02/12 02:27:21;;;;;;;;;;;21.90;43.90;;;;;;5155895;27;19976;-45
2022/02/12 02:29:48;;;;;;;;;;;21.80;43.90;;;;;;5156106;27;19995;-45
2022/02/12 02:32:17;;;;;;;;;;;21.90;44.00;;;;;;5156784;27;19931;-45
2022/02/12 02:35:02;;;;;;;;;;;21.90;43.90;;;;;;5157119;27;19923;-44
2022/02/12 02:37:29;;;;;;;;;;;21.90;43.90;;;;;;5148805;27;20014;-46
2022/02/12 02:39:57;;;;;;;;;;;21.90;43.90;;;;;;5136275;27;19924;-46
2022/02/12 02:42:25;;;;;;;;;;;21.80;43.90;;;;;;5135679;27;20367;-46
2022/02/12 02:44:52;;;;;;;;;;;21.90;43.90;;;;;;5121155;27;19923;-47
2022/02/12 02:47:40;;;;;;;;;;;21.90;43.90;;;;;;5156512;27;20033;-47
2022/02/12 02:56:02;;;;;;;;;;;21.90;43.90;;;;;;5156422;27;19927;-44
2022/02/12 02:58:32;;;;;;;;;;;21.90;43.90;;;;;;5156907;27;19923;-43
2022/02/12 03:01:01;;;;;;;;;;;21.80;43.80;;;;;;5155343;27;19923;-47
2022/02/12 03:03:29;;;;;;;;;;;21.90;43.90;;;;;;5156224;27;20354;-46
2022/02/12 03:05:57;;;;;;;;;;;21.90;43.90;;;;;;5143831;27;20355;-49
2022/02/12 03:08:25;;;;;;;;;;;21.80;43.80;;;;;;5147470;27;19968;-50
2022/02/12 03:10:52;;;;;;;;;;;21.90;43.90;;;;;;5156241;27;19923;-46
2022/02/12 03:13:19;;;;;;;;;;;21.80;43.90;;;;;;5156322;27;19927;-45
2022/02/12 03:15:46;;;;;;;;;;;21.80;43.90;;;;;;5154915;27;20010;-46
2022/02/12 03:18:13;;;;;;;;;;;21.80;43.80;;;;;;5155936;27;19976;-47
2022/02/12 03:20:40;;;;;;;;;;;21.80;43.90;;;;;;5155850;27;19923;-48
2022/02/12 03:23:08;;;;;;;;;;;21.80;43.90;;;;;;5154839;27;19923;-47
2022/02/12 03:25:36;;;;;;;;;;;21.80;43.90;;;;;;5156117;27;20306;-48
2022/02/12 03:28:04;;;;;;;;;;;21.80;43.80;;;;;;5156081;27;19927;-45
2022/02/12 03:30:32;;;;;;;;;;;21.80;43.90;;;;;;5154674;27;20382;-44
2022/02/12 03:32:59;;;;;;;;;;;21.80;43.90;;;;;;5155653;27;19952;-44
2022/02/12 03:35:27;;;;;;;;;;;21.80;43.90;;;;;;5155963;27;20063;-48
2022/02/12 03:38:05;;;;;;;;;;;21.80;43.80;;;;;;5155041;27;19923;-48
2022/02/12 03:40:32;;;;;;;;;;;21.80;43.90;;;;;;5155813;27;19923;-47
2022/02/12 03:42:59;;;;;;;;;;;21.80;43.80;;;;;;5155752;27;19931;-49
2022/02/12 03:45:26;;;;;;;;;;;21.80;43.90;;;;;;5151632;27;19931;-49
2022/02/12 03:47:53;;;;;;;;;;;21.80;43.80;;;;;;5135050;27;19946;-49
2022/02/12 03:50:20;;;;;;;;;;;21.80;44.40;;;;;;5134994;27;19923;-50
2022/02/12 03:52:49;;;;;;;;;;;21.80;43.80;;;;;;5136915;27;19987;-52
2022/02/12 03:55:17;;;;;;;;;;;21.80;43.90;;;;;;5155330;27;19972;-52
2022/02/12 03:57:44;;;;;;;;;;;21.80;43.90;;;;;;5155300;27;19927;-49
2022/02/12 04:00:12;;;;;;;;;;;21.80;43.80;;;;;;5154803;27;19985;-51
2022/02/12 04:02:39;;;;;;;;;;;21.80;43.90;;;;;;5154942;27;19984;-46
2022/02/12 04:05:07;;;;;;;;;;;21.80;43.80;;;;;;5150200;27;19930;-51
2022/02/12 04:07:38;;;;;;;;;;;21.80;43.80;;;;;;5134815;27;19923;-46
2022/02/12 04:10:06;;;;;;;;;;;21.80;43.80;;;;;;5134366;27;19945;-52
2022/02/12 04:12:33;;;;;;;;;;;21.80;43.80;;;;;;5134441;28;19923;-44
2022/02/12 04:15:01;;;;;;;;;;;21.80;43.80;;;;;;5134382;28;19976;-47
2022/02/12 04:17:32;;;;;;;;;;;21.80;43.80;;;;;;5152354;27;19976;-48
2022/02/12 04:20:02;;;;;;;;;;;21.80;43.80;;;;;;5155045;27;20361;-46
2022/02/12 04:22:30;;;;;;;;;;;21.80;43.80;;;;;;5154856;27;19952;-48
2022/02/12 04:24:58;;;;;;;;;;;21.80;43.80;;;;;;5135808;27;19992;-49
2022/02/12 04:27:25;;;;;;;;;;;21.80;43.80;;;;;;5134672;28;19963;-50
2022/02/12 04:29:53;;;;;;;;;;;21.80;43.80;;;;;;5116405;28;19971;-47
2022/02/12 04:32:22;;;;;;;;;;;21.80;43.80;;;;;;5149256;27;19927;-46
2022/02/12 04:34:50;;;;;;;;;;;21.80;43.80;;;;;;5154968;27;19927;-47
2022/02/12 04:37:18;;;;;;;;;;;21.80;43.80;;;;;;5136622;27;19967;-50
2022/02/12 04:39:45;;;;;;;;;;;21.80;43.80;;;;;;5138833;27;19930;-50
2022/02/12 04:42:12;;;;;;;;;;;21.80;43.80;;;;;;5134304;28;20263;-50
2022/02/12 04:44:40;;;;;;;;;;;21.80;43.90;;;;;;5134144;28;20022;-48
2022/02/12 04:47:07;;;;;;;;;;;21.80;43.90;;;;;;5146410;27;19950;-50
2022/02/12 04:49:36;;;;;;;;;;;21.80;43.90;;;;;;5155170;27;20023;-46
2022/02/12 04:52:05;;;;;;;;;;;21.80;43.90;;;;;;5158415;27;19926;-51
2022/02/12 04:54:32;;;;;;;;;;;21.80;43.90;;;;;;5158244;27;19927;-49
2022/02/12 04:57:00;;;;;;;;;;;21.80;43.90;;;;;;5159005;27;19942;-46
2022/02/12 04:59:27;;;;;;;;;;;21.80;43.90;;;;;;5158688;27;19930;-48
2022/02/12 05:01:54;;;;;;;;;;;21.80;43.90;;;;;;5148640;27;19924;-45
2022/02/12 05:04:23;;;;;;;;;;;21.80;43.90;;;;;;5138153;27;19924;-44
2022/02/12 05:06:50;;;;;;;;;;;21.80;43.90;;;;;;5157840;27;19934;-44
2022/02/12 05:09:18;;;;;;;;;;;21.80;43.90;;;;;;5149001;27;20432;-43
2022/02/12 05:11:50;;;;;;;;;;;21.80;43.90;;;;;;5119365;27;20355;-46
2022/02/12 05:14:19;;;;;;;;;;;21.80;43.90;;;;;;5138021;27;19973;-50
2022/02/12 05:16:46;;;;;;;;;;;21.80;43.90;;;;;;5144193;27;20018;-46
2022/02/12 05:19:14;;;;;;;;;;;21.80;43.90;;;;;;5158236;27;20298;-43
2022/02/12 05:21:41;;;;;;;;;;;21.80;43.90;;;;;;5157973;27;20029;-46
2022/02/12 05:24:08;;;;;;;;;;;21.80;43.90;;;;;;5157465;27;20026;-45
2022/02/12 05:26:36;;;;;;;;;;;21.80;43.90;;;;;;5158176;27;19923;-45
2022/02/12 05:29:03;;;;;;;;;;;21.80;43.80;;;;;;5158445;27;19923;-49
2022/02/12 05:31:30;;;;;;;;;;;21.80;43.80;;;;;;5157026;27;19934;-49
2022/02/12 05:33:57;;;;;;;;;;;21.80;43.90;;;;;;5158039;27;19923;-43
2022/02/12 05:36:24;;;;;;;;;;;21.80;43.90;;;;;;5158838;27;19923;-45
2022/02/12 05:38:51;;;;;;;;;;;21.80;43.90;;;;;;5157150;27;19923;-47
2022/02/12 05:41:18;;;;;;;;;;;21.80;43.90;;;;;;5158086;27;20335;-47
2022/02/12 05:43:45;;;;;;;;;;;21.80;43.90;;;;;;5139449;27;20014;-47
2022/02/12 05:46:13;;;;;;;;;;;21.70;43.80;;;;;;5158059;27;19987;-45
2022/02/12 05:48:40;;;;;;;;;;;21.70;43.80;;;;;;5136725;27;20000;-44
2022/02/12 05:51:07;;;;;;;;;;;21.70;43.80;;;;;;5136929;27;20413;-47
2022/02/12 05:53:34;;;;;;;;;;;21.70;43.80;;;;;;5137079;27;19927;-44
2022/02/12 05:56:02;;;;;;;;;;;21.70;43.90;;;;;;5155261;27;20335;-46
2022/02/12 05:58:29;;;;;;;;;;;21.70;43.80;;;;;;5139277;27;19963;-48
2022/02/12 06:00:56;;;;;;;;;;;21.70;43.80;;;;;;5157492;27;19976;-52
2022/02/12 06:03:23;;;;;;;;;;;21.70;43.90;;;;;;5138598;27;19981;-46
2022/02/12 06:05:50;;;;;;;;;;;21.70;43.90;;;;;;5146328;27;19927;-44
2022/02/12 06:08:17;;;;;;;;;;;21.70;43.90;;;;;;5137446;27;19928;-47
2022/02/12 06:10:45;;;;;;;;;;;21.70;43.90;;;;;;5150713;27;19930;-48
2022/02/12 06:13:12;;;;;;;;;;;21.70;44.50;;;;;;5157229;27;20005;-48
2022/02/12 06:15:39;;;;;;;;;;;21.70;43.90;;;;;;5157216;27;19923;-52
2022/02/12 06:18:06;;;;;;;;;;;21.70;43.90;;;;;;5156152;27;19924;-48
2022/02/12 06:20:33;;;;;;;;;;;21.70;43.90;;;;;;5157103;27;20386;-48
2022/02/12 06:23:00;;;;;;;;;;;21.70;43.90;;;;;;5156803;27;19927;-50
2022/02/12 06:25:28;;;;;;;;;;;21.70;43.90;;;;;;5156555;27;19923;-49
2022/02/12 06:27:57;;;;;;;;;;;21.70;43.90;;;;;;5138869;27;19972;-50
2022/02/12 06:30:25;;;;;;;;;;;21.70;43.90;;;;;;5157252;27;19927;-44
2022/02/12 06:32:52;;;;;;;;;;;21.70;43.90;;;;;;5156016;27;19946;-46
2022/02/12 06:35:20;;;;;;;;;;;21.70;43.90;;;;;;5156732;27;19934;-46
2022/02/12 06:37:47;;;;;;;;;;;21.70;43.90;;;;;;5156707;27;20367;-47
2022/02/12 06:40:14;;;;;;;;;;;21.70;43.90;;;;;;5156092;27;19923;-45
2022/02/12 06:42:42;;;;;;;;;;;21.70;44.00;;;;;;5156904;27;19966;-46
2022/02/12 06:45:09;;;;;;;;;;;21.70;44.00;;;;;;5156889;27;19923;-46
2022/02/12 06:47:37;;;;;;;;;;;21.70;43.90;;;;;;5155790;27;19954;-48
2022/02/12 06:50:04;;;;;;;;;;;21.70;43.90;;;;;;5138521;27;19927;-45
2022/02/12 06:52:31;;;;;;;;;;;21.70;43.90;;;;;;5156265;27;19923;-46
2022/02/12 06:54:58;;;;;;;;;;;21.70;43.90;;;;;;5155977;27;19977;-46
2022/02/12 06:57:25;;;;;;;;;;;21.70;43.90;;;;;;5138319;27;19923;-44
2022/02/12 06:59:52;;;;;;;;;;;21.70;43.90;;;;;;5156657;27;19930;-50
2022/02/12 07:02:19;;;;;;;;;;;21.70;43.90;;;;;;5155332;27;20043;-51
2022/02/12 07:04:46;;;;;;;;;;;21.70;43.90;;;;;;5154345;27;19923;-50
2022/02/12 07:07:13;;;;;;;;;;;21.70;43.90;;;;;;5117268;27;19931;-49
2022/02/12 07:09:41;;;;;;;;;;;21.70;43.90;;;;;;5135352;27;19924;-51
2022/02/12 07:12:08;;;;;;;;;;;21.70;43.90;;;;;;5156126;27;19972;-50
2022/02/12 07:14:35;;;;;;;;;;;21.70;43.90;;;;;;5137775;27;19930;-50
2022/02/12 07:17:03;;;;;;;;;;;21.70;43.90;;;;;;5156258;27;19970;-48
2022/02/12 07:19:30;;;;;;;;;;;21.70;43.90;;;;;;5154643;27;20458;-48
2022/02/12 07:21:57;;;;;;;;;;;21.70;43.90;;;;;;5156057;27;20327;-48
2022/02/12 07:24:24;;;;;;;;;;;21.70;43.80;;;;;;5155768;27;20013;-50
2022/02/12 07:26:51;;;;;;;;;;;21.70;43.80;;;;;;5155134;27;19923;-50
2022/02/12 07:29:19;;;;;;;;;;;21.70;43.80;;;;;;5155723;27;19966;-52
2022/02/12 07:31:46;;;;;;;;;;;21.70;43.80;;;;;;5155700;27;19923;-46
2022/02/12 07:34:15;;;;;;;;;;;21.70;43.80;;;;;;5154927;27;19923;-48
2022/02/12 07:36:42;;;;;;;;;;;21.70;43.80;;;;;;5155652;27;19923;-46
2022/02/12 07:39:10;;;;;;;;;;;21.70;43.70;;;;;;5155579;27;19979;-48
2022/02/12 07:41:37;;;;;;;;;;;21.70;43.70;;;;;;5136653;27;19923;-46
2022/02/12 07:44:04;;;;;;;;;;;21.70;43.70;;;;;;5155744;27;20278;-46
2022/02/12 07:46:32;;;;;;;;;;;21.70;43.70;;;;;;5155767;27;19923;-49
2022/02/12 07:48:59;;;;;;;;;;;21.70;43.70;;;;;;5154434;27;19923;-46
2022/02/12 07:51:26;;;;;;;;;;;21.70;43.70;;;;;;5155270;27;20034;-47
2022/02/12 07:53:53;;;;;;;;;;;21.70;43.70;;;;;;5137410;27;19930;-45
2022/02/12 07:56:20;;;;;;;;;;;21.70;43.60;;;;;;5126748;27;19935;-46
2022/02/12 07:58:48;;;;;;;;;;;21.80;43.70;;;;;;5134457;27;20410;-46
2022/02/12 08:01:15;;;;;;;;;;;21.80;43.70;;;;;;5134847;27;19981;-48
2022/02/12 08:03:42;;;;;;;;;;;21.80;43.70;;;;;;5142569;27;19922;-46
2022/02/12 08:08:57;;;;;;;;;;;21.80;43.70;;;;;;5134847;27;19923;-44
2022/02/12 08:11:26;;;;;;;;;;;21.80;43.60;;;;;;5133776;27;19924;-44
2022/02/12 08:13:53;;;;;;;;;;;21.80;43.60;;;;;;5134768;28;19924;-46
2022/02/12 08:16:20;;;;;;;;;;;21.80;43.50;;;;;;5134416;28;19976;-46
2022/02/12 08:18:47;;;;;;;;;;;21.80;43.50;;;;;;5141281;27;19978;-49
2022/02/12 08:21:14;;;;;;;;;;;21.80;43.50;;;;;;5154842;27;19930;-44
2022/02/12 08:23:41;;;;;;;;;;;21.80;43.50;;;;;;5155252;27;19923;-45
2022/02/12 08:26:08;;;;;;;;;;;21.80;43.50;;;;;;5151845;27;19924;-49
2022/02/12 08:28:37;;;;;;;;;;;21.80;43.50;;;;;;5120408;27;19923;-44
2022/02/12 08:31:04;;;;;;;;;;;21.80;43.50;;;;;;5138525;27;19923;-45
2022/02/12 08:33:32;;;;;;;;;;;21.80;43.40;;;;;;5142481;27;19923;-44
2022/02/12 08:35:59;;;;;;;;;;;21.80;43.40;;;;;;5159113;27;19930;-44
2022/02/12 08:38:26;;;;;;;;;;;21.80;43.40;;;;;;5159041;27;19923;-44
2022/02/12 08:40:53;;;;;;;;;;;21.80;43.40;;;;;;5157886;27;19923;-44
2022/02/12 08:43:20;;;;;;;;;;;21.80;43.40;;;;;;5158870;27;19930;-46
2022/02/12 08:45:47;;;;;;;;;;;21.80;43.30;;;;;;5140973;27;19923;-48
2022/02/12 08:48:14;;;;;;;;;;;21.90;43.40;;;;;;5158292;27;19927;-47
2022/02/12 08:50:42;;;;;;;;;;;21.90;43.40;;;;;;5158746;27;19930;-43
2022/02/12 08:53:10;;;;;;;;;;;21.90;43.40;;;;;;5158779;27;19923;-44
2022/02/12 08:55:37;;;;;;;;;;;21.90;43.40;;;;;;5140366;27;19926;-44
2022/02/12 08:58:04;;;;;;;;;;;21.90;43.30;;;;;;5157914;27;19975;-43
2022/02/12 09:00:32;;;;;;;;;;;21.90;43.30;;;;;;5158662;27;19931;-44
2022/02/12 09:03:10;;;;;;;;;;;21.90;43.20;;;;;;5158556;27;20382;-47
2022/02/12 09:05:37;;;;;;;;;;;22.00;43.30;;;;;;5147975;27;19923;-48
2022/02/12 09:08:04;;;;;;;;;;;21.90;43.20;;;;;;5138138;27;19967;-45
2022/02/12 09:10:31;;;;;;;;;;;21.90;43.20;;;;;;5137963;27;19976;-46
2022/02/12 09:12:58;;;;;;;;;;;22.00;43.20;;;;;;5135278;27;19972;-44
2022/02/12 09:15:25;;;;;;;;;;;22.00;43.20;;;;;;5158407;27;20010;-49
2022/02/12 09:17:53;;;;;;;;;;;22.00;43.10;;;;;;5158084;27;19923;-45
2022/02/12 09:20:20;;;;;;;;;;;22.00;43.10;;;;;;5137940;27;19931;-46
2022/02/12 09:22:48;;;;;;;;;;;22.00;43.10;;;;;;5157091;27;19923;-46
2022/02/12 09:25:15;;;;;;;;;;;22.00;43.00;;;;;;5156938;27;20431;-47
2022/02/12 09:27:42;;;;;;;;;;;22.00;43.00;;;;;;5156147;27;19965;-44
2022/02/12 09:30:09;;;;;;;;;;;22.00;43.00;;;;;;5156890;27;19958;-48
2022/02/12 09:32:36;;;;;;;;;;;22.00;43.00;;;;;;5156882;27;19924;-45
2022/02/12 09:35:06;;;;;;;;;;;22.10;43.00;;;;;;5155780;27;19923;-45
2022/02/12 09:37:33;;;;;;;;;;;22.10;43.00;;;;;;5156357;27;19962;-47
2022/02/12 09:40:00;;;;;;;;;;;22.10;42.90;;;;;;5138606;27;19979;-48
2022/02/12 09:42:28;;;;;;;;;;;22.10;42.90;;;;;;5156251;27;19930;-46
2022/02/12 09:44:55;;;;;;;;;;;22.10;42.80;;;;;;5156606;27;19923;-45
2022/02/12 09:47:31;;;;;;;;;;;22.10;42.80;;;;;;5156594;27;19923;-44
2022/02/12 09:49:58;;;;;;;;;;;22.10;42.80;;;;;;5155481;27;19962;-48
2022/02/12 09:52:29;;;;;;;;;;;22.10;42.80;;;;;;5156333;27;20390;-48
2022/02/12 09:54:56;;;;;;;;;;;22.10;42.70;;;;;;5156777;27;19987;-44
2022/02/12 09:57:23;;;;;;;;;;;22.10;42.70;;;;;;5155999;27;19948;-43
2022/02/12 09:59:58;;;;;;;;;;;22.20;42.80;;;;;;5156362;27;19923;-45
2022/02/12 10:02:25;;;;;;;;;;;22.10;42.60;;;;;;5156703;27;19923;-45
2022/02/12 10:05:11;;;;;;;;;;;22.20;42.70;;;;;;5152095;27;19969;-45
2022/02/12 10:07:38;;;;;;;;;;;22.20;42.70;;;;;;5135457;28;19923;-44
2022/02/12 10:10:12;;;;;;;;;;;22.20;42.70;;;;;;5135790;28;19971;-47
2022/02/12 10:12:39;;;;;;;;;;;22.20;42.70;;;;;;5142618;27;19929;-48
2022/02/12 10:15:26;;;;;;;;;;;22.20;42.70;;;;;;5156171;27;19976;-48
2022/02/12 10:17:57;;;;;;;;;;;22.20;42.70;;;;;;5085126;27;1987782;-49
2022/02/12 10:20:25;;;;;;;;;;;22.20;43.20;;;;;;5146063;27;19924;-49
2022/02/12 10:22:54;;;;;;;;;;;22.20;42.60;;;;;;5136405;27;19972;-49
2022/02/12 10:25:21;;;;;;;;;;;22.20;42.60;;;;;;5136633;27;19934;-47
2022/02/12 10:27:49;;;;;;;;;;;22.20;42.60;;;;;;5143602;27;19923;-52
2022/02/12 10:30:16;;;;;;;;;;;22.20;42.60;;;;;;5156964;27;19971;-48
2022/02/12 10:32:44;;;;;;;;;;;22.20;42.60;;;;;;5156860;27;19923;-53
2022/02/12 10:35:12;;;;;;;;;;;22.30;42.70;;;;;;5155727;27;19948;-53
2022/02/12 10:37:42;;;;;;;;;;;22.30;42.70;;;;;;5157606;27;20359;-48
2022/02/12 10:40:10;;;;;;;;;;;22.30;42.70;;;;;;5156652;27;19930;-46
2022/02/12 10:42:43;;;;;;;;;;;22.30;42.60;;;;;;5155973;27;19948;-43
2022/02/12 10:45:13;;;;;;;;;;;22.30;42.60;;;;;;5156950;27;19927;-51
2022/02/12 10:47:42;;;;;;;;;;;22.30;42.60;;;;;;5156433;27;19927;-50
2022/02/12 10:50:10;;;;;;;;;;;22.30;42.60;;;;;;5155117;27;19923;-47
2022/02/12 10:52:43;;;;;;;;;;;22.40;42.70;;;;;;5156321;27;20017;-48
2022/02/12 10:55:29;;;;;;;;;;;22.40;42.60;;;;;;5156426;27;19968;-46
2022/02/12 10:58:00;;;;;;;;;;;22.40;42.60;;;;;;5155650;27;20403;-46
2022/02/12 11:00:28;;;;;;;;;;;22.40;42.60;;;;;;5156657;27;19975;-48
2022/02/12 11:02:56;;;;;;;;;;;22.40;42.60;;;;;;5138306;27;19927;-48
2022/02/12 11:05:23;;;;;;;;;;;22.40;42.60;;;;;;5154657;27;19936;-49
2022/02/12 11:07:51;;;;;;;;;;;22.40;42.60;;;;;;5156512;27;20335;-46
2022/02/12 11:10:18;;;;;;;;;;;22.40;42.50;;;;;;5156021;27;19976;-46
2022/02/12 11:12:46;;;;;;;;;;;22.40;43.10;;;;;;5155382;27;19927;-50
2022/02/12 11:15:13;;;;;;;;;;;22.40;42.50;;;;;;5156045;27;20386;-47
2022/02/12 11:18:02;;;;;;;;;;;22.40;42.50;;;;;;5156039;27;19929;-48
2022/02/12 11:20:29;;;;;;;;;;;22.40;42.50;;;;;;5149668;27;20371;-50
2022/02/12 11:23:15;;;;;;;;;;;22.40;42.50;;;;;;5135004;27;20441;-48
2022/02/12 11:25:42;;;;;;;;;;;22.40;42.50;;;;;;5117174;27;19966;-47
2022/02/12 11:28:11;;;;;;;;;;;22.40;42.60;;;;;;5134588;27;19963;-47
2022/02/12 11:30:39;;;;;;;;;;;22.40;42.50;;;;;;5134957;27;20413;-48
2022/02/12 11:33:08;;;;;;;;;;;22.40;42.50;;;;;;5134937;27;19984;-46
2022/02/12 11:35:35;;;;;;;;;;;22.40;42.50;;;;;;5139724;27;20382;-46
2022/02/12 11:38:03;;;;;;;;;;;22.50;42.60;;;;;;5155646;27;19970;-49
2022/02/12 11:40:30;;;;;;;;;;;22.50;42.60;;;;;;5155659;27;19923;-47
2022/02/12 11:43:03;;;;;;;;;;;22.50;42.60;;;;;;5155144;27;20294;-50
2022/02/12 11:45:56;;;;;;;;;;;22.50;42.60;;;;;;5155788;27;19967;-46
2022/02/12 11:48:26;;;;;;;;;;;22.50;42.60;;;;;;5151385;27;19957;-50
2022/02/12 11:51:05;;;;;;;;;;;22.50;42.60;;;;;;5154727;27;19923;-49
2022/02/12 11:53:46;;;;;;;;;;;22.50;42.60;;;;;;5155517;27;19984;-52
2022/02/12 11:56:19;;;;;;;;;;;22.50;42.60;;;;;;5155416;27;19930;-48
2022/02/12 11:58:46;;;;;;;;;;;22.50;42.50;;;;;;5147187;27;20428;-48
2022/02/12 12:01:27;;;;;;;;;;;22.50;42.50;;;;;;5134778;27;19930;-50
2022/02/12 12:04:14;;;;;;;;;;;22.50;42.60;;;;;;5134508;27;20378;-52
2022/02/12 12:06:59;;;;;;;;;;;22.50;42.50;;;;;;5151805;27;20454;-51
2022/02/12 12:09:27;;;;;;;;;;;22.50;42.50;;;;;;5155514;27;19923;-47
2022/02/12 12:12:13;;;;;;;;;;;22.50;42.50;;;;;;5155062;27;19968;-50
2022/02/12 12:14:40;;;;;;;;;;;22.50;42.50;;;;;;5154712;27;19969;-49
2022/02/12 12:17:08;;;;;;;;;;;22.50;42.50;;;;;;5155103;27;19927;-44
2022/02/12 12:19:38;;;;;;;;;;;22.50;42.50;;;;;;5154973;27;19930;-46
2022/02/12 12:22:10;;;;;;;;;;;22.50;42.60;;;;;;5154193;27;19977;-45
2022/02/12 12:24:38;;;;;;;;;;;22.50;42.50;;;;;;5136948;27;19923;-44
2022/02/12 12:27:05;;;;;;;;;;;22.50;42.50;;;;;;5155013;27;19968;-45
2022/02/12 12:32:19;;;;;;;;;;;22.50;42.50;;;;;;5155304;27;19927;-45
2022/02/12 12:34:52;;;;;;;;;;;22.60;42.60;;;;;;5154937;27;19923;-47
2022/02/12 12:37:20;;;;;;;;;;;22.50;42.50;;;;;;5154188;27;19977;-44
2022/02/12 12:39:47;;;;;;;;;;;22.60;42.50;;;;;;5154791;27;20345;-45
2022/02/12 12:42:19;;;;;;;;;;;22.60;42.50;;;;;;5154884;27;19962;-45
2022/02/12 12:44:59;;;;;;;;;;;22.60;42.50;;;;;;5154407;27;20009;-47
2022/02/12 12:47:27;;;;;;;;;;;22.60;42.50;;;;;;5154801;27;20435;-46
2022/02/12 12:49:55;;;;;;;;;;;22.60;42.50;;;;;;5154833;27;20378;-47
2022/02/12 12:52:26;;;;;;;;;;;22.60;42.50;;;;;;5153558;27;19924;-44
2022/02/12 12:54:57;;;;;;;;;;;22.60;42.50;;;;;;5154817;27;20430;-47
2022/02/12 12:57:27;;;;;;;;;;;22.60;42.50;;;;;;5136373;27;19974;-48
2022/02/12 12:59:56;;;;;;;;;;;22.60;42.50;;;;;;5154013;27;19923;-45
2022/02/12 13:02:24;;;;;;;;;;;22.60;42.50;;;;;;5155049;27;19923;-46
2022/02/12 13:04:55;;;;;;;;;;;22.60;42.50;;;;;;5154613;27;19924;-44
2022/02/12 13:07:24;;;;;;;;;;;22.60;42.50;;;;;;5153885;27;19927;-46
2022/02/12 13:09:52;;;;;;;;;;;22.60;42.50;;;;;;5154862;27;19923;-47
2022/02/12 13:12:30;;;;;;;;;;;22.60;42.50;;;;;;5157122;27;19923;-47
2022/02/12 13:14:59;;;;;;;;;;;22.60;42.50;;;;;;5158049;27;20009;-45
2022/02/12 13:17:26;;;;;;;;;;;22.60;42.50;;;;;;5158330;27;20422;-44
2022/02/12 13:19:57;;;;;;;;;;;22.60;42.50;;;;;;5158163;27;19929;-47
2022/02/12 13:22:26;;;;;;;;;;;22.60;42.40;;;;;;5139021;27;19927;-45
2022/02/12 13:24:55;;;;;;;;;;;22.60;42.40;;;;;;5158442;27;19972;-46
2022/02/12 13:27:27;;;;;;;;;;;22.60;42.40;;;;;;5158579;27;19923;-49
2022/02/12 13:30:05;;;;;;;;;;;22.60;42.40;;;;;;5157688;27;19923;-51
2022/02/12 13:32:41;;;;;;;;;;;22.60;42.40;;;;;;5158453;27;19923;-52
2022/02/12 13:35:12;;;;;;;;;;;22.60;42.50;;;;;;5158046;27;20024;-53
2022/02/12 13:37:41;;;;;;;;;;;22.60;42.40;;;;;;5157260;27;19930;-50
2022/02/12 13:40:09;;;;;;;;;;;22.60;42.40;;;;;;5158160;27;19972;-48
2022/02/12 13:42:36;;;;;;;;;;;22.60;42.40;;;;;;5157915;27;19923;-49
2022/02/12 13:45:05;;;;;;;;;;;22.60;42.40;;;;;;5157316;27;20256;-47
2022/02/12 13:47:33;;;;;;;;;;;22.60;42.40;;;;;;5158084;27;19934;-47
2022/02/12 13:50:01;;;;;;;;;;;22.60;42.40;;;;;;5158548;27;19959;-48
2022/02/12 13:52:28;;;;;;;;;;;22.60;42.40;;;;;;5156819;27;19967;-46
2022/02/12 13:55:03;;;;;;;;;;;22.60;42.40;;;;;;5139757;27;19923;-47
2022/02/12 13:57:30;;;;;;;;;;;22.60;42.40;;;;;;5157590;27;19930;-50
2022/02/12 13:59:58;;;;;;;;;;;22.60;42.40;;;;;;5156839;27;19930;-48
2022/02/12 14:02:25;;;;;;;;;;;22.60;42.40;;;;;;5157489;27;19976;-49
2022/02/12 14:04:53;;;;;;;;;;;22.60;42.40;;;;;;5154635;27;20411;-49
2022/02/12 14:07:21;;;;;;;;;;;22.60;42.40;;;;;;5136962;27;19923;-48
2022/02/12 14:09:48;;;;;;;;;;;22.60;42.40;;;;;;5136767;27;20006;-45
2022/02/12 14:12:17;;;;;;;;;;;22.60;42.40;;;;;;5137438;27;19930;-50
2022/02/12 14:14:44;;;;;;;;;;;22.60;42.40;;;;;;5138829;27;19931;-47
2022/02/12 14:17:11;;;;;;;;;;;22.60;42.40;;;;;;5158070;27;20006;-50
2022/02/12 14:19:38;;;;;;;;;;;22.60;42.40;;;;;;5135206;27;19973;-46
2022/02/12 14:22:07;;;;;;;;;;;22.60;42.40;;;;;;5135288;27;19928;-49
2022/02/12 14:24:34;;;;;;;;;;;22.60;42.50;;;;;;5135223;27;19927;-46
2022/02/12 14:27:01;;;;;;;;;;;22.60;42.40;;;;;;5136619;27;19927;-51
2022/02/12 14:29:28;;;;;;;;;;;22.60;42.50;;;;;;5135397;27;19923;-46
2022/02/12 14:32:00;;;;;;;;;;;22.60;42.50;;;;;;5135072;27;19946;-46
2022/02/12 14:34:28;;;;;;;;;;;22.50;42.40;;;;;;5136491;27;19992;-45
2022/02/12 14:36:56;;;;;;;;;;;22.50;42.40;;;;;;5135489;27;19930;-49